createdAt,value
2019-05-25T00:01:49.869Z,59.84
2019-05-25T00:04:16.825Z,59.78
2019-05-25T00:06:43.777Z,59.45
2019-05-25T00:09:10.750Z,59.18
2019-05-25T00:11:37.707Z,59.14
2019-05-25T00:14:04.685Z,59.16
2019-05-25T00:16:31.643Z,59.22
2019-05-25T00:18:58.594Z,59.51
2019-05-25T00:21:25.579Z,59.88
2019-05-25T00:23:52.575Z,59.33
2019-05-25T00:26:19.552Z,58.52
2019-05-25T00:28:46.520Z,58.28
2019-05-25T00:31:13.467Z,57.84
2019-05-25T00:33:40.402Z,57.41
2019-05-25T00:36:07.374Z,57.22
2019-05-25T00:38:34.335Z,57.14
2019-05-25T00:41:01.319Z,57.06
2019-05-25T00:43:28.288Z,56.83
2019-05-25T00:45:55.236Z,56.57
2019-05-25T00:48:22.192Z,56.64
2019-05-25T00:50:49.186Z,56.61
2019-05-25T00:53:16.128Z,55.89
2019-05-25T00:55:43.074Z,56.04
2019-05-25T00:58:10.079Z,56.12
2019-05-25T01:00:37.134Z,56.24
2019-05-25T01:03:04.381Z,56.55
2019-05-25T01:05:31.350Z,56.53
2019-05-25T01:07:58.313Z,56.53
2019-05-25T01:10:25.257Z,57.20
2019-05-25T01:12:52.211Z,57.54
2019-05-25T01:15:19.468Z,57.96
2019-05-25T01:17:46.420Z,57.69
2019-05-25T01:20:14.301Z,57.90
2019-05-25T01:22:41.264Z,58.26
2019-05-25T01:25:08.678Z,58.03
2019-05-25T01:27:35.687Z,58.20
2019-05-25T01:30:03.886Z,58.14
2019-05-25T01:32:30.839Z,58.10
2019-05-25T01:34:57.841Z,58.17
2019-05-25T01:37:24.812Z,58.18
2019-05-25T01:39:51.761Z,58.41
2019-05-25T01:42:18.793Z,58.58
2019-05-25T01:44:45.764Z,59.24
2019-05-25T01:47:12.730Z,59.59
2019-05-25T01:49:39.700Z,59.62
2019-05-25T01:52:06.654Z,60.37
2019-05-25T01:54:33.616Z,60.10
2019-05-25T01:57:00.592Z,60.94
2019-05-25T01:59:27.545Z,62.55
2019-05-25T02:01:54.508Z,62.81
2019-05-25T02:04:21.497Z,63.53
2019-05-25T02:06:48.453Z,64.15
2019-05-25T02:09:15.391Z,64.30
2019-05-25T02:11:42.353Z,65.15
2019-05-25T02:14:09.329Z,65.59
2019-05-25T02:16:36.311Z,65.45
2019-05-25T02:19:03.378Z,65.23
2019-05-25T02:21:30.349Z,65.28
2019-05-25T02:23:57.330Z,65.23
2019-05-25T02:26:24.357Z,65.42
2019-05-25T02:28:51.344Z,65.09
2019-05-25T02:31:18.297Z,64.72
2019-05-25T02:33:45.256Z,64.26
2019-05-25T02:36:12.209Z,63.87
2019-05-25T02:38:39.217Z,63.44
2019-05-25T02:41:06.146Z,62.58
2019-05-25T02:43:33.228Z,61.73
2019-05-25T02:46:00.188Z,61.30
2019-05-25T02:48:27.131Z,60.81
2019-05-25T02:50:54.094Z,60.50
2019-05-25T02:53:21.058Z,60.21
2019-05-25T02:55:48.032Z,60.24
2019-05-25T02:58:14.981Z,60.02
2019-05-25T03:00:41.929Z,60.19
2019-05-25T03:03:08.903Z,60.13
2019-05-25T03:05:35.862Z,60.16
2019-05-25T03:08:02.913Z,60.12
2019-05-25T03:10:30.304Z,60.17
2019-05-25T03:13:00.131Z,60.03
2019-05-25T03:15:27.082Z,60.02
2019-05-25T03:17:54.057Z,60.07
2019-05-25T03:20:21.003Z,60.05
2019-05-25T03:22:47.977Z,59.91
2019-05-25T03:25:14.929Z,60.02
2019-05-25T03:27:41.945Z,60.39
2019-05-25T03:30:09.484Z,60.71
2019-05-25T03:32:36.489Z,60.88
2019-05-25T03:35:04.126Z,61.05
2019-05-25T03:37:31.082Z,61.24
2019-05-25T03:39:58.040Z,61.08
2019-05-25T03:42:24.979Z,61.16
2019-05-25T03:44:51.986Z,60.94
2019-05-25T03:47:18.932Z,60.96
2019-05-25T03:49:45.891Z,62.31
2019-05-25T03:52:12.876Z,63.17
2019-05-25T03:54:39.832Z,63.78
2019-05-25T03:57:06.800Z,63.78
2019-05-25T03:59:33.750Z,64.52
2019-05-25T04:02:00.723Z,64.54
2019-05-25T04:04:27.687Z,64.93
2019-05-25T04:06:54.636Z,65.48
2019-05-25T04:09:21.610Z,65.85
2019-05-25T04:11:48.596Z,65.86
2019-05-25T04:14:15.561Z,65.96
2019-05-25T04:16:42.559Z,65.89
2019-05-25T04:19:09.515Z,66.18
2019-05-25T04:21:36.457Z,66.69
2019-05-25T04:24:03.732Z,66.72
2019-05-25T04:26:30.726Z,67.34
2019-05-25T04:28:57.677Z,67.24
2019-05-25T04:31:24.665Z,67.52
2019-05-25T04:33:51.606Z,67.42
2019-05-25T04:36:18.563Z,67.27
2019-05-25T04:38:45.543Z,67.00
2019-05-25T04:41:12.497Z,66.92
2019-05-25T04:43:39.486Z,66.64
2019-05-25T04:46:06.459Z,66.52
2019-05-25T04:48:33.434Z,66.68
2019-05-25T04:51:00.392Z,66.50
2019-05-25T04:53:27.353Z,66.41
2019-05-25T04:55:54.307Z,66.38
2019-05-25T04:58:21.260Z,66.19
2019-05-25T05:00:48.221Z,65.99
2019-05-25T05:03:15.170Z,65.76
2019-05-25T05:05:43.016Z,65.88
2019-05-25T05:08:09.976Z,67.65
2019-05-25T05:10:36.935Z,69.50
2019-05-25T05:13:03.914Z,70.49
2019-05-25T05:15:30.883Z,71.29
2019-05-25T05:17:57.811Z,71.35
2019-05-25T05:20:24.797Z,71.31
2019-05-25T05:22:51.772Z,71.14
2019-05-25T05:25:18.783Z,70.85
2019-05-25T05:27:45.786Z,70.82
2019-05-25T05:30:13.072Z,71.07
2019-05-25T05:32:40.020Z,71.88
2019-05-25T05:35:07.461Z,71.55
2019-05-25T05:37:35.292Z,71.36
2019-05-25T05:40:02.246Z,70.87
2019-05-25T05:42:32.052Z,70.32
2019-05-25T05:45:00.821Z,69.56
2019-05-25T05:47:29.979Z,68.65
2019-05-25T05:50:01.036Z,68.14
2019-05-25T05:52:31.618Z,67.41
2019-05-25T05:55:01.186Z,67.19
2019-05-25T05:57:28.149Z,66.91
2019-05-25T05:59:55.091Z,67.21
2019-05-25T06:02:22.061Z,66.99
2019-05-25T06:04:49.021Z,66.98
2019-05-25T06:07:15.986Z,66.62
2019-05-25T06:09:42.932Z,66.22
2019-05-25T06:12:09.912Z,66.23
2019-05-25T06:14:36.856Z,66.02
2019-05-25T06:17:03.806Z,65.14
2019-05-25T06:19:30.800Z,64.68
2019-05-25T06:21:57.753Z,63.36
2019-05-25T06:24:24.736Z,63.18
2019-05-25T06:26:51.889Z,62.87
2019-05-25T06:29:18.843Z,62.75
2019-05-25T06:31:45.820Z,63.03
2019-05-25T06:34:12.898Z,63.20
2019-05-25T06:36:39.866Z,63.46
2019-05-25T06:39:10.099Z,63.41
2019-05-25T06:41:37.101Z,62.97
2019-05-25T06:44:04.220Z,62.99
2019-05-25T06:46:31.176Z,63.28
2019-05-25T06:48:58.195Z,63.08
2019-05-25T06:51:25.240Z,63.50
2019-05-25T06:53:52.207Z,66.38
2019-05-25T06:56:19.183Z,68.20
2019-05-25T06:58:46.196Z,68.59
2019-05-25T07:01:13.399Z,68.98
2019-05-25T07:03:40.399Z,68.55
2019-05-25T07:06:07.358Z,69.27
2019-05-25T07:08:34.315Z,69.00
2019-05-25T07:11:01.310Z,69.43
2019-05-25T07:13:28.723Z,69.19
2019-05-25T07:15:55.745Z,68.91
2019-05-25T07:18:22.717Z,68.38
2019-05-25T07:20:49.768Z,67.74
2019-05-25T07:23:17.569Z,67.50
2019-05-25T07:25:44.575Z,66.69
2019-05-25T07:28:11.624Z,66.25
2019-05-25T07:30:38.754Z,65.21
2019-05-25T07:33:05.693Z,64.21
2019-05-25T07:35:32.658Z,63.47
2019-05-25T07:37:59.650Z,64.12
2019-05-25T07:40:26.605Z,64.01
2019-05-25T07:42:53.547Z,63.35
2019-05-25T07:45:20.548Z,63.94
2019-05-25T07:47:47.615Z,63.40
2019-05-25T07:50:15.117Z,63.28
2019-05-25T07:52:44.348Z,62.71
2019-05-25T07:55:11.402Z,61.61
2019-05-25T07:57:38.352Z,62.36
2019-05-25T08:00:05.911Z,62.59
2019-05-25T08:02:32.888Z,61.85
2019-05-25T08:04:59.876Z,61.40
2019-05-25T08:07:26.886Z,60.88
2019-05-25T08:09:53.862Z,61.25
2019-05-25T08:12:20.864Z,61.51
2019-05-25T08:14:47.871Z,61.11
2019-05-25T08:17:14.848Z,60.74
2019-05-25T08:19:41.848Z,60.82
2019-05-25T08:22:10.178Z,60.58
2019-05-25T08:24:37.232Z,61.08
2019-05-25T08:27:04.247Z,61.28
2019-05-25T08:29:31.217Z,61.64
2019-05-25T08:31:58.184Z,61.48
2019-05-25T08:34:25.183Z,61.13
2019-05-25T08:36:52.168Z,60.93
2019-05-25T08:39:19.122Z,60.42
2019-05-25T08:41:46.195Z,60.75
2019-05-25T08:44:13.133Z,60.37
2019-05-25T08:46:40.095Z,59.58
2019-05-25T08:49:07.046Z,58.48
2019-05-25T08:51:34.077Z,58.21
2019-05-25T08:54:01.052Z,56.65
2019-05-25T08:56:28.021Z,56.68
2019-05-25T08:58:55.730Z,56.29
2019-05-25T09:01:22.749Z,55.09
2019-05-25T09:03:49.698Z,55.63
2019-05-25T09:06:16.644Z,56.22
2019-05-25T09:08:43.599Z,56.50
2019-05-25T09:11:10.556Z,56.96
2019-05-25T09:13:37.537Z,56.87
2019-05-25T09:16:04.591Z,56.96
2019-05-25T09:18:31.567Z,58.33
2019-05-25T09:20:58.534Z,57.08
2019-05-25T09:23:25.548Z,56.74
2019-05-25T09:25:52.585Z,58.43
2019-05-25T09:28:19.575Z,59.73
2019-05-25T09:30:46.535Z,59.93
2019-05-25T09:33:13.493Z,60.03
2019-05-25T09:35:40.448Z,59.53
2019-05-25T09:38:07.412Z,58.39
2019-05-25T09:40:34.370Z,59.06
2019-05-25T09:43:01.375Z,58.65
2019-05-25T09:45:28.326Z,58.25
2019-05-25T09:47:55.279Z,58.21
2019-05-25T09:50:22.244Z,57.51
2019-05-25T09:52:49.212Z,57.73
2019-05-25T09:55:16.395Z,55.54
2019-05-25T09:57:43.449Z,56.20
2019-05-25T10:00:11.208Z,55.53
2019-05-25T10:02:38.260Z,56.13
2019-05-25T10:05:05.498Z,56.01
2019-05-25T10:07:32.475Z,55.16
2019-05-25T10:09:59.445Z,54.33
2019-05-25T10:12:26.458Z,55.20
2019-05-25T10:14:53.416Z,55.32
2019-05-25T10:17:20.399Z,55.49
2019-05-25T10:19:47.426Z,55.25
2019-05-25T10:22:14.391Z,55.23
2019-05-25T10:24:41.361Z,55.37
2019-05-25T10:27:08.362Z,55.92
2019-05-25T10:29:37.699Z,56.35
2019-05-25T10:32:05.099Z,56.58
2019-05-25T10:34:32.076Z,56.17
2019-05-25T10:36:59.153Z,56.79
2019-05-25T10:39:26.480Z,56.31
2019-05-25T10:41:53.462Z,56.16
2019-05-25T10:44:20.450Z,55.85
2019-05-25T10:46:47.486Z,55.16
2019-05-25T10:49:17.531Z,55.53
2019-05-25T10:51:44.481Z,55.42
2019-05-25T10:54:11.499Z,55.95
2019-05-25T10:56:38.451Z,55.39
2019-05-25T10:59:12.031Z,55.34
2019-05-25T11:01:40.213Z,54.57
2019-05-25T11:04:07.139Z,56.01
2019-05-25T11:06:35.013Z,56.64
2019-05-25T11:09:02.626Z,56.28
2019-05-25T11:11:29.564Z,55.91
2019-05-25T11:13:56.565Z,55.72
2019-05-25T11:16:23.557Z,55.73
2019-05-25T11:18:50.485Z,55.96
2019-05-25T11:21:17.485Z,56.27
2019-05-25T11:23:44.447Z,56.00
2019-05-25T11:26:11.475Z,56.31
2019-05-25T11:28:38.504Z,56.15
2019-05-25T11:31:08.580Z,55.93
2019-05-25T11:33:36.481Z,55.79
2019-05-25T11:36:03.644Z,55.74
2019-05-25T11:38:30.627Z,56.33
2019-05-25T11:40:57.566Z,56.18
2019-05-25T11:43:24.532Z,55.62
2019-05-25T11:45:51.508Z,56.05
2019-05-25T11:48:18.457Z,55.71
2019-05-25T11:50:45.400Z,55.92
2019-05-25T11:53:12.378Z,54.81
2019-05-25T11:55:39.444Z,54.45
2019-05-25T11:58:06.428Z,55.33
2019-05-25T12:00:33.440Z,55.21
2019-05-25T12:03:00.411Z,54.55
2019-05-25T12:05:27.402Z,54.24
2019-05-25T12:07:54.353Z,54.65
2019-05-25T12:10:22.163Z,55.11
2019-05-25T12:12:49.175Z,54.16
2019-05-25T12:15:16.311Z,53.93
2019-05-25T12:17:43.343Z,54.17
2019-05-25T12:20:11.018Z,54.15
2019-05-25T12:22:37.970Z,55.05
2019-05-25T12:25:05.390Z,54.12
2019-05-25T12:27:32.351Z,53.11
2019-05-25T12:29:59.368Z,54.23
2019-05-25T12:32:26.332Z,52.79
2019-05-25T12:34:53.317Z,53.66
2019-05-25T12:37:20.292Z,53.34
2019-05-25T12:39:47.242Z,52.95
2019-05-25T12:42:14.234Z,52.70
2019-05-25T12:44:41.231Z,52.93
2019-05-25T12:47:08.301Z,52.43
2019-05-25T12:49:50.175Z,51.48
2019-05-25T12:52:04.155Z,52.22
2019-05-25T12:54:31.128Z,51.46
2019-05-25T12:56:58.157Z,49.91
2019-05-25T12:59:25.196Z,51.04
2019-05-25T13:01:52.232Z,50.32
2019-05-25T13:04:19.227Z,50.08
2019-05-25T13:06:46.180Z,51.32
2019-05-25T13:09:13.137Z,51.16
2019-05-25T13:11:40.117Z,52.24
2019-05-25T13:14:14.447Z,52.24
2019-05-25T13:16:35.957Z,51.85
2019-05-25T13:19:02.934Z,51.80
2019-05-25T13:21:29.938Z,51.54
2019-05-25T13:23:56.942Z,50.96
2019-05-25T13:26:23.928Z,51.47
2019-05-25T13:28:51.025Z,51.95
2019-05-25T13:31:18.015Z,52.72
2019-05-25T13:33:44.971Z,52.93
2019-05-25T13:36:11.969Z,53.07
2019-05-25T13:38:38.947Z,52.69
2019-05-25T13:41:05.929Z,52.32
2019-05-25T13:43:32.892Z,52.76
2019-05-25T13:45:59.853Z,52.63
2019-05-25T13:48:26.918Z,52.21
2019-05-25T13:50:53.893Z,52.45
2019-05-25T13:53:20.873Z,52.21
2019-05-25T13:55:47.853Z,52.81
2019-05-25T13:58:14.834Z,52.43
2019-05-25T14:00:41.903Z,52.50
2019-05-25T14:03:08.921Z,52.78
2019-05-25T14:05:35.893Z,53.24
2019-05-25T14:08:02.906Z,53.49
2019-05-25T14:10:29.907Z,52.41
2019-05-25T14:12:56.905Z,52.71
2019-05-25T14:15:23.930Z,52.57
2019-05-25T14:17:51.045Z,52.48
2019-05-25T14:20:18.145Z,51.85
2019-05-25T14:22:45.175Z,52.14
2019-05-25T14:25:12.236Z,51.47
2019-05-25T14:27:39.283Z,51.94
2019-05-25T14:30:06.795Z,52.12
2019-05-25T14:32:33.845Z,52.26
2019-05-25T14:35:00.834Z,53.50
2019-05-25T14:37:27.832Z,52.01
2019-05-25T14:39:54.837Z,51.30
2019-05-25T14:42:21.820Z,50.68
2019-05-25T14:44:48.761Z,51.52
2019-05-25T14:47:15.725Z,51.54
2019-05-25T14:49:42.718Z,51.23
2019-05-25T14:52:09.690Z,51.77
2019-05-25T14:54:36.727Z,51.40
2019-05-25T14:57:03.665Z,50.35
2019-05-25T14:59:30.660Z,50.10
2019-05-25T15:02:02.569Z,50.35
2019-05-25T15:04:26.521Z,49.94
2019-05-25T15:06:53.490Z,51.56
2019-05-25T15:09:20.472Z,51.73
2019-05-25T15:11:47.435Z,50.81
2019-05-25T15:14:14.391Z,50.26
2019-05-25T15:16:41.471Z,50.93
2019-05-25T15:19:08.462Z,50.82
2019-05-25T15:23:33.460Z,50.94
2019-05-25T15:26:33.465Z,49.86
2019-05-25T15:29:00.118Z,51.62
2019-05-25T15:31:26.726Z,50.30
2019-05-25T15:33:53.258Z,51.29
2019-05-25T15:36:19.812Z,51.26
2019-05-25T15:38:46.337Z,50.88
2019-05-25T15:41:12.894Z,51.26
2019-05-25T15:43:39.491Z,50.91
2019-05-25T15:46:06.058Z,50.86
2019-05-25T15:48:32.557Z,51.06
2019-05-25T15:50:59.094Z,51.07
2019-05-25T15:53:25.750Z,52.00
2019-05-25T15:55:52.349Z,52.13
2019-05-25T15:58:18.959Z,51.86
2019-05-25T16:00:46.435Z,51.50
2019-05-25T16:03:13.399Z,50.95
2019-05-25T16:05:39.903Z,50.71
2019-05-25T16:08:06.451Z,51.28
2019-05-25T16:10:33.057Z,51.58
2019-05-25T16:12:59.581Z,51.08
2019-05-25T16:15:26.519Z,51.52
2019-05-25T16:17:53.150Z,51.80
2019-05-25T16:20:21.198Z,51.69
2019-05-25T16:22:47.727Z,51.27
2019-05-25T16:25:14.388Z,51.40
2019-05-25T16:27:40.937Z,50.97
2019-05-25T16:30:07.558Z,52.05
2019-05-25T16:32:34.058Z,51.53
2019-05-25T16:35:00.630Z,51.80
2019-05-25T16:37:27.244Z,52.09
2019-05-25T16:39:53.870Z,52.77
2019-05-25T16:42:20.523Z,53.04
2019-05-25T16:44:47.124Z,52.69
2019-05-25T16:47:13.638Z,53.04
2019-05-25T16:49:40.273Z,52.28
2019-05-25T16:52:06.942Z,52.29
2019-05-25T16:54:33.550Z,53.06
2019-05-25T16:57:00.080Z,53.39
2019-05-25T16:59:26.665Z,53.74
2019-05-25T17:01:53.211Z,53.87
2019-05-25T17:04:19.839Z,54.00
2019-05-25T17:06:46.365Z,54.44
2019-05-25T17:09:12.973Z,54.16
2019-05-25T17:11:39.599Z,54.85
2019-05-25T17:14:06.218Z,54.84
2019-05-25T17:16:32.903Z,54.82
2019-05-25T17:18:59.410Z,55.59
2019-05-25T17:21:25.974Z,55.54
2019-05-25T17:23:52.505Z,55.25
2019-05-25T17:26:19.082Z,55.14
2019-05-25T17:28:45.686Z,55.80
2019-05-25T17:31:12.261Z,55.54
2019-05-25T17:33:46.103Z,55.67
2019-05-25T17:36:07.178Z,55.59
2019-05-25T17:38:33.706Z,55.66
2019-05-25T17:41:00.326Z,54.92
2019-05-25T17:43:26.869Z,55.46
2019-05-25T17:45:53.421Z,54.94
2019-05-25T17:48:19.926Z,54.72
2019-05-25T17:50:46.519Z,54.47
2019-05-25T17:53:13.047Z,54.74
2019-05-25T17:55:39.676Z,54.87
2019-05-25T17:58:06.272Z,54.79
2019-05-25T18:00:37.426Z,54.80
2019-05-25T18:03:04.069Z,54.85
2019-05-25T18:05:30.653Z,55.55
2019-05-25T18:07:57.195Z,55.66
2019-05-25T18:10:23.709Z,55.75
2019-05-25T18:12:50.354Z,55.60
2019-05-25T18:15:16.917Z,55.96
2019-05-25T18:17:43.450Z,55.75
2019-05-25T18:20:10.175Z,55.61
2019-05-25T18:22:36.811Z,55.67
2019-05-25T18:25:03.718Z,55.94
2019-05-25T18:27:30.249Z,55.71
2019-05-25T18:29:56.767Z,55.82
2019-05-25T18:32:23.290Z,55.49
2019-05-25T18:34:49.819Z,55.66
2019-05-25T18:37:16.424Z,55.60
2019-05-25T18:39:43.063Z,55.60
2019-05-25T18:42:09.574Z,55.60
2019-05-25T18:44:36.128Z,55.47
2019-05-25T18:47:02.728Z,55.35
2019-05-25T18:49:29.356Z,55.32
2019-05-25T18:51:55.998Z,55.29
2019-05-25T18:54:22.612Z,55.37
2019-05-25T18:56:49.213Z,55.43
2019-05-25T18:59:15.867Z,55.49
2019-05-25T19:01:42.514Z,55.62
2019-05-25T19:04:09.071Z,55.69
2019-05-25T19:06:35.682Z,55.88
2019-05-25T19:09:02.203Z,55.90
2019-05-25T19:11:28.742Z,55.87
2019-05-25T19:13:55.293Z,55.80
2019-05-25T19:16:21.901Z,55.75
2019-05-25T19:18:48.430Z,55.78
2019-05-25T19:21:15.065Z,55.89
2019-05-25T19:23:41.609Z,55.96
2019-05-25T19:26:08.244Z,55.96
2019-05-25T19:28:34.921Z,55.98
2019-05-25T19:31:01.562Z,55.98
2019-05-25T19:33:28.199Z,56.06
2019-05-25T19:35:54.804Z,56.18
2019-05-25T19:38:21.342Z,56.13
2019-05-25T19:40:47.871Z,56.19
2019-05-25T19:43:14.502Z,56.22
2019-05-25T19:45:41.243Z,56.31
2019-05-25T19:48:07.837Z,56.38
2019-05-25T19:50:34.450Z,56.58
2019-05-25T19:53:00.983Z,56.88
2019-05-25T19:55:27.545Z,57.10
2019-05-25T19:57:54.054Z,57.23
2019-05-25T20:00:20.667Z,57.41
2019-05-25T20:02:47.199Z,57.40
2019-05-25T20:05:16.815Z,57.31
2019-05-25T20:07:42.473Z,57.29
2019-05-25T20:10:09.790Z,57.35
2019-05-25T20:12:36.642Z,57.37
2019-05-25T20:15:03.362Z,57.45
2019-05-25T20:17:29.919Z,57.49
2019-05-25T20:19:56.588Z,57.55
2019-05-25T20:22:23.199Z,57.56
2019-05-25T20:24:49.823Z,57.62
2019-05-25T20:27:16.444Z,57.80
2019-05-25T20:29:42.976Z,58.04
2019-05-25T20:32:09.527Z,58.18
2019-05-25T20:34:36.095Z,58.20
2019-05-25T20:37:02.702Z,58.28
2019-05-25T20:39:29.253Z,58.44
2019-05-25T20:41:55.864Z,58.48
2019-05-25T20:44:22.379Z,58.68
2019-05-25T20:46:48.922Z,58.90
2019-05-25T20:49:15.428Z,59.15
2019-05-25T20:51:42.058Z,59.16
2019-05-25T20:54:08.672Z,59.10
2019-05-25T20:56:35.185Z,59.15
2019-05-25T20:59:01.849Z,59.28
2019-05-25T21:01:28.353Z,59.41
2019-05-25T21:03:54.878Z,59.37
2019-05-25T21:06:21.544Z,59.37
2019-05-25T21:08:48.078Z,59.55
2019-05-25T21:11:14.701Z,59.61
2019-05-25T21:13:41.235Z,59.65
2019-05-25T21:16:07.754Z,59.70
2019-05-25T21:18:34.314Z,59.80
2019-05-25T21:21:00.923Z,59.96
2019-05-25T21:23:27.445Z,59.98
2019-05-25T21:25:54.062Z,59.94
2019-05-25T21:28:20.725Z,59.98
2019-05-25T21:30:47.240Z,60.16
2019-05-25T21:33:13.859Z,60.23
2019-05-25T21:35:40.495Z,60.25
2019-05-25T21:38:07.103Z,60.28
2019-05-25T21:40:33.617Z,60.37
2019-05-25T21:43:00.294Z,60.38
2019-05-25T21:45:26.932Z,60.45
2019-05-25T21:47:56.001Z,60.54
2019-05-25T21:50:21.940Z,60.52
2019-05-25T21:52:48.453Z,60.50
2019-05-25T21:55:14.970Z,60.52
2019-05-25T21:57:41.511Z,60.54
2019-05-25T22:00:10.104Z,60.62
2019-05-25T22:02:36.733Z,60.68
2019-05-25T22:05:03.833Z,60.71
2019-05-25T22:07:30.441Z,60.77
2019-05-25T22:09:56.993Z,60.79
2019-05-25T22:12:23.526Z,60.85
2019-05-25T22:14:50.198Z,60.83
2019-05-25T22:17:16.810Z,60.91
2019-05-25T22:19:43.336Z,60.93
2019-05-25T22:22:09.969Z,60.96
2019-05-25T22:24:36.561Z,61.04
2019-05-25T22:27:03.238Z,61.02
2019-05-25T22:29:29.768Z,61.02
2019-05-25T22:31:56.459Z,61.06
2019-05-25T22:34:23.060Z,61.09
2019-05-25T22:36:49.586Z,61.05
2019-05-25T22:39:16.125Z,61.07
2019-05-25T22:41:42.773Z,61.05
2019-05-25T22:44:09.394Z,61.09
2019-05-25T22:46:36.018Z,61.15
2019-05-25T22:49:02.682Z,61.22
2019-05-25T22:51:29.223Z,61.24
2019-05-25T22:53:55.866Z,61.33
2019-05-25T22:56:22.476Z,61.35
2019-05-25T22:58:49.080Z,61.41
2019-05-25T23:01:15.631Z,61.43
2019-05-25T23:03:42.251Z,61.53
2019-05-25T23:06:08.779Z,61.60
2019-05-25T23:08:35.409Z,61.68
2019-05-25T23:11:02.018Z,61.85
2019-05-25T23:13:28.555Z,61.91
2019-05-25T23:15:55.094Z,62.27
2019-05-25T23:18:21.720Z,62.33
2019-05-25T23:20:48.339Z,62.46
2019-05-25T23:23:14.860Z,62.54
2019-05-25T23:25:41.362Z,62.67
2019-05-25T23:28:07.883Z,62.81
2019-05-25T23:30:34.543Z,62.97
2019-05-25T23:33:01.170Z,63.15
2019-05-25T23:35:27.707Z,63.45
2019-05-25T23:37:54.303Z,63.72
2019-05-25T23:40:20.817Z,63.92
2019-05-25T23:42:47.382Z,64.10
2019-05-25T23:45:14.303Z,64.23
2019-05-25T23:47:41.001Z,64.44
2019-05-25T23:50:08.178Z,64.62
2019-05-25T23:52:34.801Z,64.71
2019-05-25T23:55:04.767Z,65.26
2019-05-25T23:57:29.848Z,65.13
2019-05-25T23:59:56.358Z,65.37
